createdAt,value
2023-05-21T00:00:32.725Z,2.77
2023-05-21T00:02:59.822Z,2.90
2023-05-21T00:05:26.891Z,2.60
2023-05-21T00:07:55.137Z,3.17
2023-05-21T00:10:22.353Z,2.63
2023-05-21T00:12:49.423Z,2.87
2023-05-21T00:15:16.625Z,2.87
2023-05-21T00:17:44.769Z,2.77
2023-05-21T00:20:13.114Z,2.77
2023-05-21T00:22:42.518Z,3.07
2023-05-21T00:25:10.561Z,2.60
2023-05-21T00:27:37.816Z,2.93
2023-05-21T00:30:05.569Z,3.47
2023-05-21T00:32:32.583Z,3.00
2023-05-21T00:34:59.549Z,3.13
2023-05-21T00:37:26.724Z,2.97
2023-05-21T00:39:53.669Z,2.90
2023-05-21T00:42:20.670Z,2.50
2023-05-21T00:44:47.785Z,2.77
2023-05-21T00:47:18.566Z,2.70
2023-05-21T00:49:45.904Z,3.20
2023-05-21T00:52:13.076Z,3.00
2023-05-21T00:54:40.111Z,3.00
2023-05-21T00:57:07.842Z,2.80
2023-05-21T00:59:35.181Z,3.00
2023-05-21T01:02:04.415Z,3.40
2023-05-21T01:04:32.326Z,2.80
2023-05-21T01:06:59.497Z,2.80
2023-05-21T01:09:27.465Z,2.67
2023-05-21T01:11:56.212Z,2.30
2023-05-21T01:14:24.809Z,2.80
2023-05-21T01:16:53.182Z,2.70
2023-05-21T01:19:22.740Z,2.70
2023-05-21T01:21:56.589Z,3.00
2023-05-21T01:24:23.655Z,3.40
2023-05-21T01:26:50.753Z,3.30
2023-05-21T01:29:17.691Z,2.87
2023-05-21T01:32:05.076Z,3.33
2023-05-21T01:34:42.401Z,2.60
2023-05-21T01:37:17.738Z,2.83
2023-05-21T01:39:52.090Z,2.80
2023-05-21T01:42:20.044Z,2.80
2023-05-21T01:44:48.840Z,3.27
2023-05-21T01:47:18.382Z,3.07
2023-05-21T01:49:46.304Z,3.00
2023-05-21T01:52:13.431Z,3.23
2023-05-21T01:54:40.394Z,3.00
2023-05-21T01:57:07.496Z,2.77
2023-05-21T01:59:35.182Z,3.20
2023-05-21T02:02:02.197Z,2.70
2023-05-21T02:04:29.106Z,3.10
2023-05-21T02:06:55.988Z,2.90
2023-05-21T02:09:23.028Z,2.70
2023-05-21T02:11:50.175Z,2.93
2023-05-21T02:14:17.097Z,3.10
2023-05-21T02:16:44.102Z,3.03
2023-05-21T02:19:11.641Z,2.87
2023-05-21T02:21:38.771Z,3.00
2023-05-21T02:24:06.062Z,3.40
2023-05-21T02:26:33.129Z,3.77
2023-05-21T02:29:00.035Z,2.60
2023-05-21T02:31:27.012Z,3.20
2023-05-21T02:33:57.239Z,3.20
2023-05-21T02:36:25.660Z,3.53
2023-05-21T02:38:52.982Z,3.30
2023-05-21T02:41:19.840Z,3.67
2023-05-21T02:43:46.743Z,3.37
2023-05-21T02:46:13.916Z,3.40
2023-05-21T02:48:41.192Z,3.60
2023-05-21T02:51:08.098Z,3.80
2023-05-21T02:53:35.081Z,3.97
2023-05-21T02:56:02.029Z,3.60
2023-05-21T02:58:29.146Z,3.57
2023-05-21T03:00:56.085Z,3.77
2023-05-21T03:03:23.111Z,3.70
2023-05-21T03:05:50.655Z,3.60
2023-05-21T03:08:17.781Z,3.97
2023-05-21T03:10:44.894Z,3.73
2023-05-21T03:13:11.994Z,3.93
2023-05-21T03:15:39.734Z,5.10
2023-05-21T03:18:06.836Z,3.70
2023-05-21T03:20:33.929Z,4.37
2023-05-21T03:23:04.343Z,4.07
2023-05-21T03:25:31.537Z,4.20
2023-05-21T03:27:58.498Z,3.90
2023-05-21T03:30:25.367Z,3.97
2023-05-21T03:32:52.251Z,3.90
2023-05-21T03:35:19.274Z,4.33
2023-05-21T03:37:46.728Z,3.90
2023-05-21T03:40:14.064Z,4.23
2023-05-21T03:42:43.934Z,4.80
2023-05-21T03:45:11.860Z,4.27
2023-05-21T03:47:38.909Z,4.23
2023-05-21T03:50:06.896Z,4.83
2023-05-21T03:52:33.882Z,4.00
2023-05-21T03:55:00.888Z,4.23
2023-05-21T03:57:28.623Z,5.03
2023-05-21T03:59:56.211Z,4.83
2023-05-21T04:02:27.371Z,4.70
2023-05-21T04:04:56.226Z,4.60
2023-05-21T04:07:24.097Z,4.77
2023-05-21T04:09:51.216Z,4.77
2023-05-21T04:12:20.362Z,4.70
2023-05-21T04:14:48.030Z,4.60
2023-05-21T04:17:15.169Z,4.37
2023-05-21T04:19:42.355Z,4.27
2023-05-21T04:22:13.549Z,4.00
2023-05-21T04:24:40.799Z,4.33
2023-05-21T04:27:10.172Z,4.63
2023-05-21T04:29:37.908Z,4.80
2023-05-21T04:32:08.627Z,4.83
2023-05-21T04:34:35.594Z,4.33
2023-05-21T04:37:05.111Z,4.80
2023-05-21T04:39:32.528Z,4.87
2023-05-21T04:41:59.538Z,4.37
2023-05-21T04:44:26.483Z,4.77
2023-05-21T04:46:55.108Z,5.60
2023-05-21T04:49:22.525Z,5.10
2023-05-21T04:51:52.527Z,4.70
2023-05-21T04:54:19.473Z,5.20
2023-05-21T04:56:47.664Z,5.27
2023-05-21T04:59:15.303Z,5.40
2023-05-21T05:01:44.164Z,5.20
2023-05-21T05:04:11.347Z,4.90
2023-05-21T05:06:38.360Z,5.53
2023-05-21T05:09:05.556Z,5.40
2023-05-21T05:11:32.761Z,5.23
2023-05-21T05:13:59.750Z,5.10
2023-05-21T05:16:26.916Z,5.23
2023-05-21T05:18:54.318Z,5.10
2023-05-21T05:21:24.106Z,5.07
2023-05-21T05:23:51.157Z,5.50
2023-05-21T05:26:18.102Z,5.67
2023-05-21T05:28:46.166Z,5.23
2023-05-21T05:31:13.351Z,5.30
2023-05-21T05:33:41.749Z,5.40
2023-05-21T05:36:08.915Z,4.93
2023-05-21T05:38:36.430Z,5.20
2023-05-21T05:41:03.351Z,4.77
2023-05-21T05:43:30.455Z,5.60
2023-05-21T05:45:57.587Z,4.90
2023-05-21T05:48:24.874Z,5.30
2023-05-21T05:50:55.361Z,5.33
2023-05-21T05:53:22.392Z,5.17
2023-05-21T05:55:49.371Z,5.37
2023-05-21T05:58:16.761Z,5.43
2023-05-21T06:00:43.655Z,5.77
2023-05-21T06:03:12.334Z,5.30
2023-05-21T06:05:39.601Z,5.70
2023-05-21T06:08:06.948Z,5.33
2023-05-21T06:10:34.045Z,5.53
2023-05-21T06:13:01.228Z,5.90
2023-05-21T06:15:28.117Z,6.13
2023-05-21T06:17:55.066Z,5.20
2023-05-21T06:20:22.254Z,4.90
2023-05-21T06:22:49.225Z,5.33
2023-05-21T06:25:16.504Z,4.70
2023-05-21T06:27:43.400Z,5.00
2023-05-21T06:30:10.785Z,4.77
2023-05-21T06:32:37.759Z,5.00
2023-05-21T06:35:05.244Z,5.10
2023-05-21T06:37:32.124Z,5.37
2023-05-21T06:39:59.003Z,4.93
2023-05-21T06:42:26.001Z,5.23
2023-05-21T06:44:53.961Z,5.60
2023-05-21T06:47:21.118Z,5.93
2023-05-21T06:49:48.170Z,5.43
2023-05-21T06:52:15.147Z,5.60
2023-05-21T06:54:42.712Z,5.53
2023-05-21T06:57:09.765Z,5.03
2023-05-21T06:59:36.786Z,6.17
2023-05-21T07:02:04.760Z,7.27
2023-05-21T07:04:32.265Z,6.03
2023-05-21T07:06:59.324Z,5.83
2023-05-21T07:09:26.256Z,5.70
2023-05-21T07:11:53.732Z,5.80
2023-05-21T07:14:20.563Z,5.80
2023-05-21T07:16:47.689Z,5.43
2023-05-21T07:19:15.665Z,6.33
2023-05-21T07:21:45.424Z,6.20
2023-05-21T07:24:12.337Z,6.70
2023-05-21T07:26:39.200Z,6.77
2023-05-21T07:29:06.384Z,6.70
2023-05-21T07:31:33.358Z,6.77
2023-05-21T07:34:00.545Z,5.83
2023-05-21T07:36:27.869Z,5.97
2023-05-21T07:38:55.139Z,6.23
2023-05-21T07:41:22.922Z,6.10
2023-05-21T07:43:50.073Z,7.03
2023-05-21T07:46:16.947Z,6.37
2023-05-21T07:48:43.883Z,6.27
2023-05-21T07:51:11.907Z,6.03
2023-05-21T07:53:39.089Z,6.60
2023-05-21T07:56:08.684Z,6.37
2023-05-21T07:58:36.647Z,6.27
2023-05-21T08:01:03.553Z,7.13
2023-05-21T08:03:31.194Z,6.40
2023-05-21T08:05:58.409Z,7.07
2023-05-21T08:08:26.798Z,7.00
2023-05-21T08:10:53.758Z,6.70
2023-05-21T08:13:20.725Z,6.83
2023-05-21T08:15:56.289Z,7.73
2023-05-21T08:18:24.169Z,6.40
2023-05-21T08:20:51.958Z,7.20
2023-05-21T08:23:18.791Z,7.40
2023-05-21T08:25:45.829Z,7.27
2023-05-21T08:28:12.934Z,7.90
2023-05-21T08:30:39.902Z,7.93
2023-05-21T08:33:07.148Z,8.00
2023-05-21T08:35:34.318Z,8.27
2023-05-21T08:38:01.689Z,8.40
2023-05-21T08:40:28.633Z,7.97
2023-05-21T08:42:55.541Z,8.43
2023-05-21T08:45:24.164Z,8.57
2023-05-21T08:47:58.756Z,8.33
2023-05-21T08:50:27.987Z,8.30
2023-05-21T08:52:55.735Z,7.43
2023-05-21T08:55:23.908Z,8.10
2023-05-21T08:57:51.186Z,8.10
2023-05-21T09:00:18.410Z,7.77
2023-05-21T09:02:46.812Z,8.33
2023-05-21T09:05:15.166Z,9.03
2023-05-21T09:07:56.051Z,8.80
2023-05-21T09:10:29.763Z,7.37
2023-05-21T09:12:56.669Z,7.73
2023-05-21T09:15:23.950Z,7.90
2023-05-21T09:17:51.246Z,8.70
2023-05-21T09:20:18.304Z,9.27
2023-05-21T09:22:50.065Z,10.67
2023-05-21T09:25:19.315Z,9.33
2023-05-21T09:27:46.433Z,8.90
2023-05-21T09:30:18.475Z,8.33
2023-05-21T09:32:46.792Z,9.30
2023-05-21T09:35:15.715Z,8.63
2023-05-21T09:37:45.302Z,7.97
2023-05-21T09:40:16.873Z,8.60
2023-05-21T09:42:52.963Z,9.50
2023-05-21T09:45:26.907Z,8.93
2023-05-21T09:47:55.839Z,9.67
2023-05-21T09:50:28.192Z,9.40
2023-05-21T09:52:56.320Z,9.90
2023-05-21T09:55:24.350Z,11.17
2023-05-21T09:57:52.039Z,10.90
2023-05-21T10:00:24.009Z,9.83
2023-05-21T10:03:01.064Z,9.73
2023-05-21T10:05:30.049Z,8.97
2023-05-21T10:08:04.887Z,9.97
2023-05-21T10:10:32.537Z,10.13
2023-05-21T10:13:04.700Z,10.60
2023-05-21T10:15:35.513Z,10.50
2023-05-21T10:18:03.868Z,10.07
2023-05-21T10:20:31.682Z,10.20
2023-05-21T10:22:59.370Z,9.80
2023-05-21T10:25:27.012Z,11.13
2023-05-21T10:27:56.097Z,10.73
2023-05-21T10:30:24.256Z,10.97
2023-05-21T10:32:52.737Z,11.10
2023-05-21T10:35:20.167Z,11.03
2023-05-21T10:37:47.182Z,11.20
2023-05-21T10:40:14.302Z,10.03
2023-05-21T10:42:58.693Z,10.47
2023-05-21T10:45:39.137Z,10.90
2023-05-21T10:48:26.863Z,10.47
2023-05-21T10:51:12.418Z,9.23
2023-05-21T10:53:54.553Z,9.87
2023-05-21T10:56:36.842Z,10.13
2023-05-21T10:59:23.333Z,9.97
2023-05-21T11:01:54.738Z,10.03
2023-05-21T11:04:28.299Z,10.73
2023-05-21T11:06:56.684Z,10.60
2023-05-21T11:09:23.679Z,10.20
2023-05-21T11:11:58.540Z,10.30
2023-05-21T11:14:39.549Z,10.63
2023-05-21T11:17:09.967Z,10.13
2023-05-21T11:19:47.503Z,8.13
2023-05-21T11:22:22.067Z,8.97
2023-05-21T11:24:51.213Z,9.40
2023-05-21T11:27:36.164Z,9.17
2023-05-21T11:30:10.801Z,9.17
2023-05-21T11:32:39.627Z,9.50
2023-05-21T11:35:07.797Z,9.20
2023-05-21T11:37:35.648Z,8.60
2023-05-21T11:40:30.526Z,10.17
2023-05-21T11:42:57.700Z,9.80
2023-05-21T11:45:29.703Z,9.47
2023-05-21T11:47:57.313Z,10.30
2023-05-21T11:50:26.266Z,9.20
2023-05-21T11:52:53.539Z,9.97
2023-05-21T11:55:26.277Z,9.20
2023-05-21T11:57:55.710Z,9.37
2023-05-21T12:00:23.537Z,9.17
2023-05-21T12:02:53.206Z,9.40
2023-05-21T12:05:21.406Z,9.60
2023-05-21T12:07:50.543Z,9.20
2023-05-21T12:10:21.776Z,9.20
2023-05-21T12:12:55.506Z,9.40
2023-05-21T12:15:24.730Z,8.63
2023-05-21T12:17:53.386Z,9.30
2023-05-21T12:20:21.110Z,9.17
2023-05-21T12:22:49.950Z,8.20
2023-05-21T12:25:23.738Z,8.83
2023-05-21T12:27:58.590Z,9.90
2023-05-21T12:30:26.686Z,8.53
2023-05-21T12:32:53.987Z,8.50
2023-05-21T12:35:24.755Z,8.03
2023-05-21T12:37:52.607Z,7.70
2023-05-21T12:40:20.576Z,8.13
2023-05-21T12:42:47.588Z,9.60
2023-05-21T12:45:15.425Z,8.30
2023-05-21T12:47:48.089Z,8.90
2023-05-21T12:50:15.186Z,8.30
2023-05-21T12:52:45.144Z,10.27
2023-05-21T12:55:15.139Z,8.20
2023-05-21T12:57:44.068Z,8.60
2023-05-21T13:00:12.029Z,8.80
2023-05-21T13:02:43.001Z,8.33
2023-05-21T13:05:19.650Z,8.43
2023-05-21T13:07:51.800Z,8.07
2023-05-21T13:10:18.993Z,8.40
2023-05-21T13:12:46.622Z,8.50
2023-05-21T13:15:15.335Z,8.90
2023-05-21T13:17:42.714Z,8.50
2023-05-21T13:20:18.640Z,8.47
2023-05-21T13:22:50.562Z,8.23
2023-05-21T13:25:21.523Z,8.70
2023-05-21T13:27:50.554Z,7.93
2023-05-21T13:30:18.225Z,7.97
2023-05-21T13:32:45.934Z,8.37
2023-05-21T13:35:13.684Z,7.90
2023-05-21T13:37:41.627Z,8.37
2023-05-21T13:40:11.535Z,8.07
2023-05-21T13:42:39.236Z,7.87
2023-05-21T13:45:07.900Z,7.73
2023-05-21T13:47:39.947Z,7.97
2023-05-21T13:50:08.531Z,8.47
2023-05-21T13:52:36.055Z,7.60
2023-05-21T13:55:03.562Z,8.57
2023-05-21T13:57:31.350Z,8.53
2023-05-21T13:59:59.441Z,8.40
2023-05-21T14:02:26.748Z,8.80
2023-05-21T14:04:55.297Z,7.70
2023-05-21T14:07:22.578Z,7.33
2023-05-21T14:09:49.842Z,7.80
2023-05-21T14:12:17.329Z,7.83
2023-05-21T14:14:45.013Z,7.70
2023-05-21T14:17:11.965Z,7.70
2023-05-21T14:19:39.161Z,7.60
2023-05-21T14:22:06.213Z,8.27
2023-05-21T14:24:33.340Z,6.70
2023-05-21T14:27:00.356Z,7.90
2023-05-21T14:29:27.445Z,7.03
2023-05-21T14:31:54.610Z,7.63
2023-05-21T14:34:21.498Z,7.13
2023-05-21T14:36:48.412Z,7.37
2023-05-21T14:39:15.901Z,7.00
2023-05-21T14:41:42.944Z,6.63
2023-05-21T14:44:09.883Z,6.93
2023-05-21T14:46:40.880Z,6.53
2023-05-21T14:49:07.858Z,7.00
2023-05-21T14:51:34.809Z,6.60
2023-05-21T14:54:01.678Z,6.93
2023-05-21T14:56:28.629Z,6.40
2023-05-21T14:58:55.886Z,6.33
2023-05-21T15:01:23.591Z,6.60
2023-05-21T15:03:51.117Z,6.50
2023-05-21T15:06:18.697Z,6.50
2023-05-21T15:08:45.698Z,6.10
2023-05-21T15:11:12.594Z,6.10
2023-05-21T15:13:39.970Z,6.77
2023-05-21T15:16:06.983Z,6.13
2023-05-21T15:18:37.683Z,6.40
2023-05-21T15:21:05.420Z,6.40
2023-05-21T15:23:32.520Z,6.23
2023-05-21T15:25:59.425Z,5.90
2023-05-21T15:28:26.508Z,6.50
2023-05-21T15:30:53.500Z,6.10
2023-05-21T15:33:20.931Z,6.20
2023-05-21T15:35:48.092Z,6.80
2023-05-21T15:38:15.389Z,6.77
2023-05-21T15:40:42.784Z,6.60
2023-05-21T15:43:09.904Z,6.97
2023-05-21T15:45:37.435Z,6.93
2023-05-21T15:48:05.180Z,6.70
2023-05-21T15:50:32.443Z,6.67
2023-05-21T15:52:59.477Z,6.83
2023-05-21T15:55:26.405Z,6.53
2023-05-21T15:57:53.395Z,7.07
2023-05-21T16:00:20.537Z,6.40
2023-05-21T16:02:47.775Z,6.40
2023-05-21T16:05:14.615Z,6.70
2023-05-21T16:07:42.116Z,7.23
2023-05-21T16:10:09.902Z,6.73
2023-05-21T16:12:37.029Z,6.57
2023-05-21T16:15:04.647Z,6.53
2023-05-21T16:17:31.970Z,6.33
2023-05-21T16:19:59.000Z,6.97
2023-05-21T16:22:26.406Z,6.43
2023-05-21T16:24:55.126Z,6.30
2023-05-21T16:27:22.263Z,6.00
2023-05-21T16:29:49.237Z,6.67
2023-05-21T16:32:16.378Z,6.23
2023-05-21T16:34:43.375Z,6.70
2023-05-21T16:37:10.308Z,7.03
2023-05-21T16:39:37.743Z,6.53
2023-05-21T16:42:04.722Z,6.43
2023-05-21T16:44:32.510Z,6.37
2023-05-21T16:46:59.881Z,6.70
2023-05-21T16:49:27.947Z,6.00
2023-05-21T16:51:55.110Z,6.60
2023-05-21T16:54:22.258Z,6.37
2023-05-21T16:56:49.211Z,6.70
2023-05-21T16:59:16.691Z,6.67
2023-05-21T17:01:44.106Z,6.67
2023-05-21T17:04:11.339Z,6.90
2023-05-21T17:06:38.382Z,6.80
2023-05-21T17:09:05.467Z,6.90
2023-05-21T17:11:32.687Z,6.53
2023-05-21T17:13:59.675Z,6.40
2023-05-21T17:16:27.047Z,6.67
2023-05-21T17:18:54.191Z,6.80
2023-05-21T17:21:21.394Z,7.30
2023-05-21T17:23:48.482Z,6.97
2023-05-21T17:26:15.623Z,7.00
2023-05-21T17:28:43.379Z,6.93
2023-05-21T17:31:10.452Z,6.73
2023-05-21T17:33:38.233Z,6.73
2023-05-21T17:36:05.406Z,6.37
2023-05-21T17:38:32.290Z,7.00
2023-05-21T17:40:59.575Z,6.40
2023-05-21T17:43:27.880Z,6.50
2023-05-21T17:45:54.936Z,6.97
2023-05-21T17:48:22.165Z,7.17
2023-05-21T17:50:49.467Z,5.97
2023-05-21T17:53:16.861Z,7.07
2023-05-21T17:55:44.260Z,6.57
2023-05-21T17:58:11.362Z,7.27
2023-05-21T18:00:38.435Z,6.87
2023-05-21T18:03:05.686Z,6.67
2023-05-21T18:05:32.661Z,7.20
2023-05-21T18:08:01.488Z,7.00
2023-05-21T18:10:28.840Z,6.80
2023-05-21T18:12:55.945Z,7.23
2023-05-21T18:15:23.133Z,7.27
2023-05-21T18:17:50.209Z,6.73
2023-05-21T18:20:17.279Z,7.40
2023-05-21T18:22:44.993Z,7.53
2023-05-21T18:25:12.094Z,7.03
2023-05-21T18:27:39.103Z,7.40
2023-05-21T18:30:07.394Z,7.30
2023-05-21T18:32:39.071Z,7.70
2023-05-21T18:35:14.308Z,7.60
2023-05-21T18:37:44.808Z,8.30
2023-05-21T18:40:12.747Z,7.73
2023-05-21T18:42:39.747Z,7.23
2023-05-21T18:45:08.817Z,7.67
2023-05-21T18:47:35.841Z,7.90
2023-05-21T18:50:03.000Z,8.00
2023-05-21T18:52:29.996Z,8.07
2023-05-21T18:54:57.067Z,8.03
2023-05-21T18:57:24.116Z,8.13
2023-05-21T18:59:51.216Z,8.20
2023-05-21T19:02:18.170Z,8.57
2023-05-21T19:04:45.067Z,8.73
2023-05-21T19:07:12.113Z,8.70
2023-05-21T19:09:39.373Z,9.60
2023-05-21T19:12:06.849Z,9.60
2023-05-21T19:14:33.707Z,9.77
2023-05-21T19:17:00.550Z,9.00
2023-05-21T19:19:27.877Z,8.90
2023-05-21T19:21:54.842Z,10.13
2023-05-21T19:24:21.802Z,9.00
2023-05-21T19:26:48.980Z,9.30
2023-05-21T19:29:16.240Z,9.93
2023-05-21T19:31:43.500Z,9.33
2023-05-21T19:34:11.198Z,10.07
2023-05-21T19:36:51.535Z,10.30
2023-05-21T19:39:19.501Z,10.23
2023-05-21T19:41:46.494Z,9.77
2023-05-21T19:44:13.474Z,10.40
2023-05-21T19:46:40.625Z,9.63
2023-05-21T19:49:07.587Z,10.47
2023-05-21T19:51:34.511Z,10.00
2023-05-21T19:54:01.691Z,9.93
2023-05-21T19:56:28.705Z,10.27
2023-05-21T19:58:55.766Z,10.60
2023-05-21T20:01:23.642Z,10.23
2023-05-21T20:03:51.072Z,10.27
2023-05-21T20:06:19.249Z,10.50
2023-05-21T20:08:46.616Z,10.73
2023-05-21T20:11:13.817Z,10.63
2023-05-21T20:13:42.180Z,10.93
2023-05-21T20:16:10.754Z,10.40
2023-05-21T20:18:37.858Z,10.73
2023-05-21T20:21:06.519Z,11.30
2023-05-21T20:23:33.568Z,10.40
2023-05-21T20:26:00.770Z,10.90
2023-05-21T20:28:27.702Z,10.67
2023-05-21T20:30:59.351Z,10.10
2023-05-21T20:33:31.475Z,11.17
2023-05-21T20:35:59.527Z,11.40
2023-05-21T20:38:27.929Z,10.63
2023-05-21T20:40:55.303Z,11.10
2023-05-21T20:43:24.520Z,11.23
2023-05-21T20:45:59.893Z,11.33
2023-05-21T20:48:32.424Z,10.77
2023-05-21T20:51:00.421Z,11.33
2023-05-21T20:53:27.335Z,10.80
2023-05-21T20:55:55.066Z,10.90
2023-05-21T20:58:24.165Z,11.00
2023-05-21T21:00:53.513Z,11.23
2023-05-21T21:03:21.957Z,11.50
2023-05-21T21:05:49.055Z,11.20
2023-05-21T21:08:16.424Z,11.03
2023-05-21T21:10:47.033Z,11.80
2023-05-21T21:13:14.858Z,10.53
2023-05-21T21:15:43.014Z,11.50
2023-05-21T21:18:12.742Z,11.80
2023-05-21T21:20:41.464Z,11.03
2023-05-21T21:23:08.857Z,11.53
2023-05-21T21:25:36.144Z,11.40
2023-05-21T21:28:03.275Z,11.00
2023-05-21T21:30:33.187Z,11.70
2023-05-21T21:33:00.101Z,11.33
2023-05-21T21:35:27.305Z,11.30
2023-05-21T21:37:54.350Z,11.40
2023-05-21T21:40:21.415Z,11.27
2023-05-21T21:42:48.345Z,12.03
2023-05-21T21:45:15.299Z,11.67
2023-05-21T21:47:42.223Z,12.20
2023-05-21T21:50:09.780Z,11.73
2023-05-21T21:52:40.287Z,11.70
2023-05-21T21:55:11.150Z,11.60
2023-05-21T21:57:39.700Z,11.77
2023-05-21T22:00:11.972Z,11.00
2023-05-21T22:02:40.531Z,12.23
2023-05-21T22:05:08.887Z,11.87
2023-05-21T22:07:38.912Z,11.90
2023-05-21T22:10:06.548Z,12.20
2023-05-21T22:12:34.357Z,11.73
2023-05-21T22:15:05.542Z,12.73
2023-05-21T22:17:33.321Z,12.27
2023-05-21T22:20:01.072Z,12.50
2023-05-21T22:22:28.034Z,12.17
2023-05-21T22:24:55.125Z,11.80
2023-05-21T22:27:22.023Z,12.03
2023-05-21T22:29:48.995Z,12.53
2023-05-21T22:32:15.925Z,12.30
2023-05-21T22:34:43.598Z,12.10
2023-05-21T22:37:11.360Z,12.03
2023-05-21T22:39:38.462Z,12.50
2023-05-21T22:42:05.900Z,12.80
2023-05-21T22:44:33.066Z,12.90
2023-05-21T22:47:01.233Z,11.77
2023-05-21T22:49:28.320Z,12.40
2023-05-21T22:51:55.189Z,11.97
2023-05-21T22:54:22.755Z,11.90
2023-05-21T22:56:50.108Z,11.47
2023-05-21T22:59:17.088Z,12.33
2023-05-21T23:01:44.125Z,12.27
2023-05-21T23:04:11.317Z,12.50
2023-05-21T23:06:38.460Z,12.00
2023-05-21T23:09:05.648Z,12.33
2023-05-21T23:11:32.654Z,12.80
2023-05-21T23:13:59.574Z,12.20
2023-05-21T23:16:26.757Z,12.50
2023-05-21T23:18:54.728Z,11.93
2023-05-21T23:21:22.170Z,12.17
2023-05-21T23:23:49.259Z,11.97
2023-05-21T23:26:16.170Z,11.50
2023-05-21T23:28:43.052Z,11.80
2023-05-21T23:31:11.569Z,12.07
2023-05-21T23:33:38.373Z,11.50
2023-05-21T23:36:05.495Z,11.70
2023-05-21T23:38:32.440Z,11.77
2023-05-21T23:41:02.520Z,12.00
2023-05-21T23:43:29.484Z,11.60
2023-05-21T23:45:56.763Z,11.77
2023-05-21T23:48:23.804Z,11.27
2023-05-21T23:50:50.987Z,11.30
2023-05-21T23:53:20.416Z,10.70
2023-05-21T23:55:47.651Z,11.53
2023-05-21T23:58:14.643Z,11.50
